sensor_id;sensor_type;location;lat;lon;timestamp;pressure;altitude;pressure_sealevel;temperature;humidity
47082;BME280;33066;49.296;14.470;2023-08-20T00:01:45;97349.19;;;28.47;37.31
47082;BME280;33066;49.296;14.470;2023-08-20T00:04:10;97351.83;;;28.29;37.24
47082;BME280;33066;49.296;14.470;2023-08-20T00:06:35;97350.76;;;28.35;37.18
47082;BME280;33066;49.296;14.470;2023-08-20T00:09:00;97351.10;;;28.32;37.27
47082;BME280;33066;49.296;14.470;2023-08-20T00:11:25;97350.73;;;28.04;37.24
47082;BME280;33066;49.296;14.470;2023-08-20T00:13:51;97349.77;;;28.20;37.29
47082;BME280;33066;49.296;14.470;2023-08-20T00:16:16;97350.25;;;27.83;37.30
47082;BME280;33066;49.296;14.470;2023-08-20T00:18:41;97352.50;;;28.19;37.41
47082;BME280;33066;49.296;14.470;2023-08-20T00:21:08;97353.80;;;27.81;37.54
47082;BME280;33066;49.296;14.470;2023-08-20T00:23:34;97359.40;;;27.95;37.61
47082;BME280;33066;49.296;14.470;2023-08-20T00:25:59;97360.14;;;27.64;37.67
47082;BME280;33066;49.296;14.470;2023-08-20T00:28:25;97356.56;;;27.85;37.75
47082;BME280;33066;49.296;14.470;2023-08-20T00:30:49;97358.34;;;27.77;37.93
47082;BME280;33066;49.296;14.470;2023-08-20T00:33:15;97360.34;;;27.52;38.03
47082;BME280;33066;49.296;14.470;2023-08-20T00:35:40;97363.45;;;27.73;38.20
47082;BME280;33066;49.296;14.470;2023-08-20T00:38:05;97369.20;;;27.73;38.18
47082;BME280;33066;49.296;14.470;2023-08-20T00:40:31;97368.64;;;27.80;37.87
47082;BME280;33066;49.296;14.470;2023-08-20T00:42:58;97370.42;;;27.57;37.81
47082;BME280;33066;49.296;14.470;2023-08-20T00:45:23;97375.66;;;27.62;37.71
47082;BME280;33066;49.296;14.470;2023-08-20T00:47:48;97374.89;;;27.87;37.61
47082;BME280;33066;49.296;14.470;2023-08-20T00:50:13;97376.38;;;27.93;37.60
47082;BME280;33066;49.296;14.470;2023-08-20T00:52:40;97375.14;;;27.97;37.50
47082;BME280;33066;49.296;14.470;2023-08-20T00:55:08;97376.82;;;27.66;37.47
47082;BME280;33066;49.296;14.470;2023-08-20T00:57:29;97377.45;;;27.81;37.47
47082;BME280;33066;49.296;14.470;2023-08-20T00:59:55;97376.40;;;27.68;37.52
47082;BME280;33066;49.296;14.470;2023-08-20T01:02:20;97371.89;;;27.58;37.62
47082;BME280;33066;49.296;14.470;2023-08-20T01:04:48;97368.79;;;27.43;37.76
47082;BME280;33066;49.296;14.470;2023-08-20T01:07:17;97368.02;;;27.33;37.94
47082;BME280;33066;49.296;14.470;2023-08-20T01:09:45;97367.38;;;27.24;38.10
47082;BME280;33066;49.296;14.470;2023-08-20T01:12:03;97363.23;;;27.41;38.18
47082;BME280;33066;49.296;14.470;2023-08-20T01:14:30;97365.29;;;27.09;38.31
47082;BME280;33066;49.296;14.470;2023-08-20T01:16:53;97367.38;;;27.03;38.48
47082;BME280;33066;49.296;14.470;2023-08-20T01:19:21;97371.83;;;26.98;38.51
47082;BME280;33066;49.296;14.470;2023-08-20T01:24:17;97370.49;;;26.95;38.75
47082;BME280;33066;49.296;14.470;2023-08-20T01:29:02;97369.15;;;27.24;38.73
47082;BME280;33066;49.296;14.470;2023-08-20T01:31:27;97368.60;;;26.95;38.68
47082;BME280;33066;49.296;14.470;2023-08-20T01:33:52;97365.53;;;27.40;38.73
47082;BME280;33066;49.296;14.470;2023-08-20T01:36:17;97363.56;;;27.11;38.76
47082;BME280;33066;49.296;14.470;2023-08-20T01:38:43;97363.31;;;26.82;38.74
47082;BME280;33066;49.296;14.470;2023-08-20T01:41:08;97362.44;;;27.09;38.63
47082;BME280;33066;49.296;14.470;2023-08-20T01:43:35;97364.13;;;26.82;38.50
47082;BME280;33066;49.296;14.470;2023-08-20T01:45:59;97367.71;;;27.29;38.31
47082;BME280;33066;49.296;14.470;2023-08-20T01:48:24;97368.62;;;27.04;38.19
47082;BME280;33066;49.296;14.470;2023-08-20T01:50:50;97367.58;;;27.02;38.13
47082;BME280;33066;49.296;14.470;2023-08-20T01:53:15;97369.00;;;27.01;38.17
47082;BME280;33066;49.296;14.470;2023-08-20T01:55:42;97370.50;;;27.05;38.14
47082;BME280;33066;49.296;14.470;2023-08-20T01:58:06;97371.06;;;27.39;38.11
47082;BME280;33066;49.296;14.470;2023-08-20T02:00:32;97373.18;;;26.98;38.05
47082;BME280;33066;49.296;14.470;2023-08-20T02:02:58;97371.37;;;27.17;37.98
47082;BME280;33066;49.296;14.470;2023-08-20T02:05:23;97372.06;;;26.85;37.99
47082;BME280;33066;49.296;14.470;2023-08-20T02:07:49;97369.78;;;26.78;37.99
47082;BME280;33066;49.296;14.470;2023-08-20T02:10:14;97373.93;;;26.70;38.05
47082;BME280;33066;49.296;14.470;2023-08-20T02:12:40;97375.51;;;27.15;38.02
47082;BME280;33066;49.296;14.470;2023-08-20T02:15:07;97378.06;;;26.83;38.06
47082;BME280;33066;49.296;14.470;2023-08-20T02:17:32;97378.75;;;26.73;38.16
47082;BME280;33066;49.296;14.470;2023-08-20T02:19:57;97379.67;;;26.42;38.16
47082;BME280;33066;49.296;14.470;2023-08-20T02:22:22;97380.13;;;26.77;38.25
47082;BME280;33066;49.296;14.470;2023-08-20T02:24:48;97379.61;;;26.72;38.37
47082;BME280;33066;49.296;14.470;2023-08-20T02:27:14;97375.46;;;26.66;38.39
47082;BME280;33066;49.296;14.470;2023-08-20T02:29:39;97375.53;;;26.13;38.41
47082;BME280;33066;49.296;14.470;2023-08-20T02:32:06;97376.76;;;26.35;38.53
47082;BME280;33066;49.296;14.470;2023-08-20T02:34:30;97377.81;;;26.55;38.58
47082;BME280;33066;49.296;14.470;2023-08-20T02:36:55;97379.10;;;26.48;38.65
47082;BME280;33066;49.296;14.470;2023-08-20T02:39:21;97380.42;;;26.50;38.71
47082;BME280;33066;49.296;14.470;2023-08-20T02:41:47;97381.85;;;26.23;38.65
47082;BME280;33066;49.296;14.470;2023-08-20T02:44:12;97383.06;;;26.47;38.74
47082;BME280;33066;49.296;14.470;2023-08-20T02:46:37;97384.79;;;26.43;38.75
47082;BME280;33066;49.296;14.470;2023-08-20T02:49:02;97388.79;;;26.17;38.74
47082;BME280;33066;49.296;14.470;2023-08-20T02:51:28;97385.93;;;26.60;38.74
47082;BME280;33066;49.296;14.470;2023-08-20T02:53:53;97385.27;;;26.32;38.73
47082;BME280;33066;49.296;14.470;2023-08-20T02:56:19;97384.16;;;26.29;38.75
47082;BME280;33066;49.296;14.470;2023-08-20T02:58:45;97386.11;;;26.33;38.78
47082;BME280;33066;49.296;14.470;2023-08-20T03:01:18;97387.44;;;26.36;38.60
47082;BME280;33066;49.296;14.470;2023-08-20T03:03:35;97387.23;;;26.42;38.63
47082;BME280;33066;49.296;14.470;2023-08-20T03:06:01;97388.07;;;26.53;38.54
47082;BME280;33066;49.296;14.470;2023-08-20T03:08:26;97384.43;;;26.85;38.40
47082;BME280;33066;49.296;14.470;2023-08-20T03:13:01;97381.96;;;26.69;37.90
47082;BME280;33066;49.296;14.470;2023-08-20T03:15:26;97381.80;;;26.52;37.98
47082;BME280;33066;49.296;14.470;2023-08-20T03:17:51;97386.10;;;26.32;38.10
47082;BME280;33066;49.296;14.470;2023-08-20T03:20:18;97385.28;;;26.41;38.24
47082;BME280;33066;49.296;14.470;2023-08-20T03:22:43;97382.62;;;26.33;38.32
47082;BME280;33066;49.296;14.470;2023-08-20T03:25:08;97382.36;;;26.47;38.39
47082;BME280;33066;49.296;14.470;2023-08-20T03:27:33;97383.23;;;26.12;38.51
47082;BME280;33066;49.296;14.470;2023-08-20T03:29:59;97382.94;;;26.04;38.60
47082;BME280;33066;49.296;14.470;2023-08-20T03:32:24;97381.78;;;26.22;38.63
47082;BME280;33066;49.296;14.470;2023-08-20T03:34:49;97376.69;;;26.18;38.69
47082;BME280;33066;49.296;14.470;2023-08-20T03:37:15;97377.55;;;26.16;38.76
47082;BME280;33066;49.296;14.470;2023-08-20T03:39:40;97379.07;;;25.86;38.81
47082;BME280;33066;49.296;14.470;2023-08-20T03:42:05;97382.85;;;26.10;38.91
47082;BME280;33066;49.296;14.470;2023-08-20T03:44:31;97382.67;;;26.10;39.00
47082;BME280;33066;49.296;14.470;2023-08-20T03:46:56;97383.83;;;26.14;39.12
47082;BME280;33066;49.296;14.470;2023-08-20T03:49:22;97387.98;;;25.93;39.11
47082;BME280;33066;49.296;14.470;2023-08-20T03:51:47;97388.50;;;26.42;39.07
47082;BME280;33066;49.296;14.470;2023-08-20T03:54:13;97391.23;;;25.97;38.93
47082;BME280;33066;49.296;14.470;2023-08-20T03:56:38;97392.08;;;26.04;38.56
47082;BME280;33066;49.296;14.470;2023-08-20T03:59:04;97393.53;;;25.90;38.32
47082;BME280;33066;49.296;14.470;2023-08-20T04:01:30;97391.76;;;26.15;38.21
47082;BME280;33066;49.296;14.470;2023-08-20T04:03:55;97391.98;;;26.14;38.07
47082;BME280;33066;49.296;14.470;2023-08-20T04:06:21;97392.80;;;26.12;38.12
47082;BME280;33066;49.296;14.470;2023-08-20T04:08:46;97397.36;;;25.85;38.13
47082;BME280;33066;49.296;14.470;2023-08-20T04:11:12;97404.97;;;26.32;38.24
47082;BME280;33066;49.296;14.470;2023-08-20T04:13:37;97412.09;;;26.16;38.32
47082;BME280;33066;49.296;14.470;2023-08-20T04:16:03;97420.81;;;26.31;38.24
47082;BME280;33066;49.296;14.470;2023-08-20T04:18:29;97428.64;;;26.26;37.80
47082;BME280;33066;49.296;14.470;2023-08-20T04:20:55;97428.23;;;26.25;37.97
47082;BME280;33066;49.296;14.470;2023-08-20T04:23:20;97424.13;;;26.50;38.06
47082;BME280;33066;49.296;14.470;2023-08-20T04:25:46;97418.40;;;26.25;38.13
47082;BME280;33066;49.296;14.470;2023-08-20T04:28:11;97416.66;;;26.52;38.27
47082;BME280;33066;49.296;14.470;2023-08-20T04:30:37;97419.60;;;26.31;38.35
47082;BME280;33066;49.296;14.470;2023-08-20T04:33:04;97422.77;;;26.30;38.45
47082;BME280;33066;49.296;14.470;2023-08-20T04:35:28;97425.45;;;26.35;38.46
47082;BME280;33066;49.296;14.470;2023-08-20T04:37:53;97423.10;;;26.40;38.44
47082;BME280;33066;49.296;14.470;2023-08-20T04:40:18;97420.21;;;26.24;38.54
47082;BME280;33066;49.296;14.470;2023-08-20T04:42:44;97420.57;;;26.24;38.70
47082;BME280;33066;49.296;14.470;2023-08-20T04:45:10;97421.83;;;26.72;38.72
47082;BME280;33066;49.296;14.470;2023-08-20T04:47:36;97422.76;;;26.49;38.77
47082;BME280;33066;49.296;14.470;2023-08-20T04:50:00;97422.78;;;26.50;38.85
47082;BME280;33066;49.296;14.470;2023-08-20T04:52:26;97421.04;;;26.30;38.92
47082;BME280;33066;49.296;14.470;2023-08-20T04:54:51;97420.17;;;26.60;38.90
47082;BME280;33066;49.296;14.470;2023-08-20T04:57:16;97421.04;;;26.63;38.97
47082;BME280;33066;49.296;14.470;2023-08-20T04:59:43;97423.20;;;26.70;38.97
47082;BME280;33066;49.296;14.470;2023-08-20T05:02:07;97423.91;;;26.75;38.73
47082;BME280;33066;49.296;14.470;2023-08-20T05:04:32;97428.38;;;26.63;38.60
47082;BME280;33066;49.296;14.470;2023-08-20T05:06:57;97429.05;;;26.78;38.36
47082;BME280;33066;49.296;14.470;2023-08-20T05:09:23;97428.77;;;27.12;38.23
47082;BME280;33066;49.296;14.470;2023-08-20T05:11:49;97427.53;;;26.95;38.11
47082;BME280;33066;49.296;14.470;2023-08-20T05:14:15;97427.43;;;26.77;38.10
47082;BME280;33066;49.296;14.470;2023-08-20T05:16:41;97428.48;;;27.25;38.03
47082;BME280;33066;49.296;14.470;2023-08-20T05:19:06;97429.20;;;26.81;38.05
47082;BME280;33066;49.296;14.470;2023-08-20T05:21:31;97431.17;;;27.10;38.12
47082;BME280;33066;49.296;14.470;2023-08-20T05:23:57;97430.05;;;27.19;38.03
47082;BME280;33066;49.296;14.470;2023-08-20T05:26:22;97430.73;;;27.06;37.96
47082;BME280;33066;49.296;14.470;2023-08-20T05:28:49;97431.62;;;27.40;37.89
47082;BME280;33066;49.296;14.470;2023-08-20T05:31:13;97435.31;;;27.19;37.97
47082;BME280;33066;49.296;14.470;2023-08-20T05:33:40;97435.29;;;27.47;37.98
47082;BME280;33066;49.296;14.470;2023-08-20T05:36:05;97430.40;;;27.29;38.01
47082;BME280;33066;49.296;14.470;2023-08-20T05:38:32;97433.29;;;27.45;37.91
47082;BME280;33066;49.296;14.470;2023-08-20T05:40:56;97434.25;;;27.94;37.33
47082;BME280;33066;49.296;14.470;2023-08-20T05:43:21;97436.39;;;27.94;37.30
47082;BME280;33066;49.296;14.470;2023-08-20T05:45:46;97437.13;;;27.89;37.28
47082;BME280;33066;49.296;14.470;2023-08-20T05:48:12;97438.49;;;27.89;37.38
47082;BME280;33066;49.296;14.470;2023-08-20T05:50:37;97437.91;;;27.90;37.57
47082;BME280;33066;49.296;14.470;2023-08-20T05:53:03;97438.00;;;27.73;37.60
47082;BME280;33066;49.296;14.470;2023-08-20T05:55:29;97438.38;;;27.79;37.67
47082;BME280;33066;49.296;14.470;2023-08-20T05:57:53;97438.08;;;27.77;37.71
47082;BME280;33066;49.296;14.470;2023-08-20T06:00:19;97438.57;;;27.78;37.95
47082;BME280;33066;49.296;14.470;2023-08-20T06:02:45;97438.82;;;27.79;38.05
47082;BME280;33066;49.296;14.470;2023-08-20T06:05:10;97442.06;;;28.07;38.00
47082;BME280;33066;49.296;14.470;2023-08-20T06:07:35;97442.97;;;27.85;37.58
47082;BME280;33066;49.296;14.470;2023-08-20T06:10:01;97447.84;;;27.85;37.57
47082;BME280;33066;49.296;14.470;2023-08-20T06:12:25;97454.34;;;28.18;37.62
47082;BME280;33066;49.296;14.470;2023-08-20T06:14:51;97459.49;;;28.25;37.75
47082;BME280;33066;49.296;14.470;2023-08-20T06:17:16;97460.92;;;28.26;37.76
47082;BME280;33066;49.296;14.470;2023-08-20T06:19:42;97459.33;;;28.02;37.92
47082;BME280;33066;49.296;14.470;2023-08-20T06:22:07;97457.96;;;28.04;37.80
47082;BME280;33066;49.296;14.470;2023-08-20T06:24:32;97457.67;;;28.12;37.94
47082;BME280;33066;49.296;14.470;2023-08-20T06:26:57;97458.25;;;28.23;37.91
47082;BME280;33066;49.296;14.470;2023-08-20T06:29:23;97457.61;;;28.08;37.91
47082;BME280;33066;49.296;14.470;2023-08-20T06:31:49;97458.63;;;28.41;37.77
47082;BME280;33066;49.296;14.470;2023-08-20T06:34:15;97458.67;;;28.50;37.66
47082;BME280;33066;49.296;14.470;2023-08-20T06:36:40;97454.33;;;28.36;37.47
47082;BME280;33066;49.296;14.470;2023-08-20T06:39:05;97455.22;;;28.43;37.63
47082;BME280;33066;49.296;14.470;2023-08-20T06:41:33;97454.31;;;28.76;37.51
47082;BME280;33066;49.296;14.470;2023-08-20T06:43:58;97457.45;;;28.82;37.32
47082;BME280;33066;49.296;14.470;2023-08-20T06:46:23;97457.61;;;28.67;37.29
47082;BME280;33066;49.296;14.470;2023-08-20T06:48:48;97459.77;;;28.77;37.29
47082;BME280;33066;49.296;14.470;2023-08-20T06:51:14;97458.74;;;28.86;37.40
47082;BME280;33066;49.296;14.470;2023-08-20T06:53:39;97459.52;;;28.94;37.34
47082;BME280;33066;49.296;14.470;2023-08-20T06:56:04;97464.09;;;28.74;37.38
47082;BME280;33066;49.296;14.470;2023-08-20T06:58:30;97467.94;;;29.27;37.46
47082;BME280;33066;49.296;14.470;2023-08-20T07:00:56;97471.85;;;29.09;37.35
47082;BME280;33066;49.296;14.470;2023-08-20T07:03:22;97470.09;;;28.88;37.32
47082;BME280;33066;49.296;14.470;2023-08-20T07:05:47;97471.74;;;28.88;37.50
47082;BME280;33066;49.296;14.470;2023-08-20T07:08:12;97471.76;;;28.91;37.41
47082;BME280;33066;49.296;14.470;2023-08-20T07:10:38;97473.30;;;29.18;37.02
47082;BME280;33066;49.296;14.470;2023-08-20T07:13:03;97474.48;;;29.17;36.84
47082;BME280;33066;49.296;14.470;2023-08-20T07:15:29;97478.28;;;29.14;36.98
47082;BME280;33066;49.296;14.470;2023-08-20T07:17:54;97478.04;;;29.09;37.17
47082;BME280;33066;49.296;14.470;2023-08-20T07:20:19;97482.24;;;29.05;37.05
47082;BME280;33066;49.296;14.470;2023-08-20T07:22:44;97481.42;;;29.03;37.10
47082;BME280;33066;49.296;14.470;2023-08-20T07:25:09;97480.08;;;28.98;37.15
47082;BME280;33066;49.296;14.470;2023-08-20T07:27:35;97479.34;;;28.98;37.49
47082;BME280;33066;49.296;14.470;2023-08-20T07:30:01;97479.17;;;29.01;37.54
47082;BME280;33066;49.296;14.470;2023-08-20T07:32:26;97482.18;;;28.81;37.56
47082;BME280;33066;49.296;14.470;2023-08-20T07:34:51;97483.80;;;29.09;37.46
47082;BME280;33066;49.296;14.470;2023-08-20T07:37:17;97486.96;;;29.12;37.40
47082;BME280;33066;49.296;14.470;2023-08-20T07:39:44;97485.24;;;29.17;37.40
47082;BME280;33066;49.296;14.470;2023-08-20T07:42:09;97487.37;;;29.28;37.49
47082;BME280;33066;49.296;14.470;2023-08-20T07:44:33;97486.48;;;29.19;37.58
47082;BME280;33066;49.296;14.470;2023-08-20T07:46:59;97487.66;;;29.16;37.39
47082;BME280;33066;49.296;14.470;2023-08-20T07:49:25;97484.47;;;29.34;37.28
47082;BME280;33066;49.296;14.470;2023-08-20T07:51:50;97487.07;;;29.68;37.22
47082;BME280;33066;49.296;14.470;2023-08-20T07:54:16;97487.70;;;29.55;36.95
47082;BME280;33066;49.296;14.470;2023-08-20T07:56:42;97486.97;;;29.88;37.06
47082;BME280;33066;49.296;14.470;2023-08-20T07:59:07;97486.89;;;29.77;36.32
47082;BME280;33066;49.296;14.470;2023-08-20T08:01:32;97486.71;;;29.86;36.60
47082;BME280;33066;49.296;14.470;2023-08-20T08:03:58;97489.41;;;29.90;36.45
47082;BME280;33066;49.296;14.470;2023-08-20T08:06:23;97490.87;;;29.95;36.26
47082;BME280;33066;49.296;14.470;2023-08-20T08:08:49;97493.07;;;30.03;35.85
47082;BME280;33066;49.296;14.470;2023-08-20T08:11:14;97492.05;;;30.12;35.80
47082;BME280;33066;49.296;14.470;2023-08-20T08:13:40;97491.09;;;30.19;35.33
47082;BME280;33066;49.296;14.470;2023-08-20T08:16:07;97491.07;;;30.23;35.87
47082;BME280;33066;49.296;14.470;2023-08-20T08:18:30;97491.04;;;30.29;36.40
47082;BME280;33066;49.296;14.470;2023-08-20T08:20:56;97489.47;;;30.37;36.35
47082;BME280;33066;49.296;14.470;2023-08-20T08:23:21;97488.85;;;30.39;36.10
47082;BME280;33066;49.296;14.470;2023-08-20T08:25:46;97488.54;;;30.41;36.00
47082;BME280;33066;49.296;14.470;2023-08-20T08:28:12;97487.50;;;30.42;35.91
47082;BME280;33066;49.296;14.470;2023-08-20T08:30:38;97486.93;;;30.43;35.29
47082;BME280;33066;49.296;14.470;2023-08-20T08:33:04;97485.84;;;30.40;35.64
47082;BME280;33066;49.296;14.470;2023-08-20T08:35:29;97486.81;;;30.40;35.63
47082;BME280;33066;49.296;14.470;2023-08-20T08:37:53;97488.43;;;30.10;35.59
47082;BME280;33066;49.296;14.470;2023-08-20T08:40:19;97488.90;;;30.39;34.86
47082;BME280;33066;49.296;14.470;2023-08-20T08:42:48;97489.28;;;30.46;34.37
47082;BME280;33066;49.296;14.470;2023-08-20T08:45:09;97488.88;;;30.45;34.25
47082;BME280;33066;49.296;14.470;2023-08-20T08:47:36;97485.12;;;30.14;34.69
47082;BME280;33066;49.296;14.470;2023-08-20T08:50:01;97481.45;;;30.33;34.82
47082;BME280;33066;49.296;14.470;2023-08-20T08:52:26;97479.49;;;30.06;34.79
47082;BME280;33066;49.296;14.470;2023-08-20T08:54:51;97478.59;;;29.93;34.70
47082;BME280;33066;49.296;14.470;2023-08-20T08:57:16;97479.21;;;30.28;34.65
47082;BME280;33066;49.296;14.470;2023-08-20T08:59:42;97480.11;;;30.38;34.76
47082;BME280;33066;49.296;14.470;2023-08-20T09:02:09;97479.81;;;30.71;34.81
47082;BME280;33066;49.296;14.470;2023-08-20T09:04:33;97480.62;;;30.81;34.94
47082;BME280;33066;49.296;14.470;2023-08-20T09:06:58;97481.88;;;30.65;35.17
47082;BME280;33066;49.296;14.470;2023-08-20T09:09:23;97483.93;;;30.53;35.05
47082;BME280;33066;49.296;14.470;2023-08-20T09:11:49;97486.04;;;30.62;33.46
47082;BME280;33066;49.296;14.470;2023-08-20T09:14:22;97486.79;;;30.91;32.73
47082;BME280;33066;49.296;14.470;2023-08-20T09:16:41;97487.77;;;30.74;32.61
47082;BME280;33066;49.296;14.470;2023-08-20T09:19:05;97490.61;;;30.80;32.47
47082;BME280;33066;49.296;14.470;2023-08-20T09:21:30;97486.61;;;31.11;32.16
47082;BME280;33066;49.296;14.470;2023-08-20T09:23:56;97487.59;;;30.99;32.05
47082;BME280;33066;49.296;14.470;2023-08-20T09:26:21;97489.53;;;31.35;32.27
47082;BME280;33066;49.296;14.470;2023-08-20T09:28:47;97486.85;;;31.22;31.85
47082;BME280;33066;49.296;14.470;2023-08-20T09:31:12;97485.53;;;31.37;31.79
47082;BME280;33066;49.296;14.470;2023-08-20T09:33:49;97484.33;;;31.59;31.95
47082;BME280;33066;49.296;14.470;2023-08-20T09:36:03;97485.36;;;31.76;31.59
47082;BME280;33066;49.296;14.470;2023-08-20T09:38:29;97488.06;;;31.76;31.44
47082;BME280;33066;49.296;14.470;2023-08-20T09:40:54;97488.52;;;32.00;31.50
47082;BME280;33066;49.296;14.470;2023-08-20T09:43:20;97490.67;;;32.32;31.27
47082;BME280;33066;49.296;14.470;2023-08-20T09:45:47;97491.63;;;32.22;31.02
47082;BME280;33066;49.296;14.470;2023-08-20T09:48:11;97492.96;;;31.69;30.77
47082;BME280;33066;49.296;14.470;2023-08-20T09:50:38;97490.21;;;31.63;31.03
47082;BME280;33066;49.296;14.470;2023-08-20T09:53:09;97492.12;;;31.88;31.36
47082;BME280;33066;49.296;14.470;2023-08-20T09:55:30;97491.48;;;31.74;31.19
47082;BME280;33066;49.296;14.470;2023-08-20T09:57:53;97491.05;;;32.23;30.88
47082;BME280;33066;49.296;14.470;2023-08-20T10:00:18;97488.94;;;32.17;30.68
47082;BME280;33066;49.296;14.470;2023-08-20T10:02:44;97485.67;;;32.14;30.66
47082;BME280;33066;49.296;14.470;2023-08-20T10:05:11;97486.03;;;32.53;30.15
47082;BME280;33066;49.296;14.470;2023-08-20T10:07:36;97487.11;;;32.67;30.23
47082;BME280;33066;49.296;14.470;2023-08-20T10:10:02;97484.76;;;32.80;29.78
47082;BME280;33066;49.296;14.470;2023-08-20T10:12:25;97488.21;;;32.72;30.01
47082;BME280;33066;49.296;14.470;2023-08-20T10:14:51;97485.96;;;33.05;29.91
47082;BME280;33066;49.296;14.470;2023-08-20T10:17:17;97484.19;;;33.19;30.18
47082;BME280;33066;49.296;14.470;2023-08-20T10:19:41;97484.99;;;33.00;29.72
47082;BME280;33066;49.296;14.470;2023-08-20T10:22:07;97484.64;;;33.00;29.17
47082;BME280;33066;49.296;14.470;2023-08-20T10:24:41;97484.39;;;32.95;29.41
47082;BME280;33066;49.296;14.470;2023-08-20T10:27:08;97486.59;;;33.06;29.42
47082;BME280;33066;49.296;14.470;2023-08-20T10:29:37;97480.83;;;33.11;29.16
47082;BME280;33066;49.296;14.470;2023-08-20T10:31:49;97481.91;;;33.38;29.32
47082;BME280;33066;49.296;14.470;2023-08-20T10:36:42;97482.43;;;33.86;28.09
47082;BME280;33066;49.296;14.470;2023-08-20T10:39:06;97479.84;;;33.81;27.31
47082;BME280;33066;49.296;14.470;2023-08-20T10:41:33;97480.59;;;34.76;26.23
47082;BME280;33066;49.296;14.470;2023-08-20T10:43:58;97477.00;;;34.78;25.94
47082;BME280;33066;49.296;14.470;2023-08-20T10:46:24;97479.02;;;35.24;25.15
47082;BME280;33066;49.296;14.470;2023-08-20T10:48:50;97476.32;;;35.60;24.53
47082;BME280;33066;49.296;14.470;2023-08-20T10:51:15;97474.35;;;35.88;23.85
47082;BME280;33066;49.296;14.470;2023-08-20T10:53:41;97472.56;;;36.65;23.41
47082;BME280;33066;49.296;14.470;2023-08-20T10:56:10;97469.86;;;36.83;22.15
47082;BME280;33066;49.296;14.470;2023-08-20T10:58:31;97464.03;;;36.71;20.71
47082;BME280;33066;49.296;14.470;2023-08-20T11:03:24;97459.36;;;37.54;20.44
47082;BME280;33066;49.296;14.470;2023-08-20T11:05:48;97455.36;;;37.65;20.17
47082;BME280;33066;49.296;14.470;2023-08-20T11:08:13;97451.83;;;37.79;20.69
47082;BME280;33066;49.296;14.470;2023-08-20T11:10:39;97449.37;;;37.76;20.09
47082;BME280;33066;49.296;14.470;2023-08-20T11:13:04;97447.83;;;38.11;20.54
47082;BME280;33066;49.296;14.470;2023-08-20T11:15:30;97445.25;;;38.73;20.98
47082;BME280;33066;49.296;14.470;2023-08-20T11:17:55;97445.93;;;38.35;21.22
47082;BME280;33066;49.296;14.470;2023-08-20T11:20:21;97445.51;;;38.39;21.03
47082;BME280;33066;49.296;14.470;2023-08-20T11:22:47;97447.80;;;38.22;20.90
47082;BME280;33066;49.296;14.470;2023-08-20T11:25:13;97447.56;;;37.96;21.16
47082;BME280;33066;49.296;14.470;2023-08-20T11:27:41;97448.13;;;37.88;21.77
47082;BME280;33066;49.296;14.470;2023-08-20T11:30:04;97447.24;;;37.76;21.89
47082;BME280;33066;49.296;14.470;2023-08-20T11:32:30;97445.64;;;37.63;21.66
47082;BME280;33066;49.296;14.470;2023-08-20T11:34:53;97445.98;;;38.07;21.76
47082;BME280;33066;49.296;14.470;2023-08-20T11:37:21;97441.60;;;38.30;22.06
47082;BME280;33066;49.296;14.470;2023-08-20T11:39:45;97440.60;;;38.85;21.46
47082;BME280;33066;49.296;14.470;2023-08-20T11:42:11;97440.18;;;38.47;20.86
47082;BME280;33066;49.296;14.470;2023-08-20T11:44:42;97438.10;;;38.26;21.03
47082;BME280;33066;49.296;14.470;2023-08-20T11:47:01;97442.90;;;38.13;21.15
47082;BME280;33066;49.296;14.470;2023-08-20T11:49:27;97445.04;;;37.99;21.13
47082;BME280;33066;49.296;14.470;2023-08-20T11:51:52;97442.12;;;37.60;22.05
47082;BME280;33066;49.296;14.470;2023-08-20T11:54:19;97445.13;;;37.63;22.48
47082;BME280;33066;49.296;14.470;2023-08-20T11:56:44;97447.31;;;38.23;21.92
47082;BME280;33066;49.296;14.470;2023-08-20T11:59:10;97444.42;;;38.71;22.40
47082;BME280;33066;49.296;14.470;2023-08-20T12:01:34;97444.87;;;39.25;22.02
47082;BME280;33066;49.296;14.470;2023-08-20T12:04:03;97444.77;;;39.75;21.48
47082;BME280;33066;49.296;14.470;2023-08-20T12:06:25;97442.06;;;39.52;21.62
47082;BME280;33066;49.296;14.470;2023-08-20T12:08:50;97437.14;;;39.94;20.97
47082;BME280;33066;49.296;14.470;2023-08-20T12:11:15;97433.57;;;40.44;20.40
47082;BME280;33066;49.296;14.470;2023-08-20T12:13:41;97432.52;;;40.44;20.48
47082;BME280;33066;49.296;14.470;2023-08-20T12:16:08;97433.88;;;40.61;20.34
47082;BME280;33066;49.296;14.470;2023-08-20T12:18:33;97432.65;;;41.06;19.68
47082;BME280;33066;49.296;14.470;2023-08-20T12:20:59;97430.94;;;41.44;19.58
47082;BME280;33066;49.296;14.470;2023-08-20T12:23:23;97427.38;;;41.76;18.77
47082;BME280;33066;49.296;14.470;2023-08-20T12:25:50;97426.38;;;41.51;18.02
47082;BME280;33066;49.296;14.470;2023-08-20T12:28:15;97427.66;;;41.90;18.36
47082;BME280;33066;49.296;14.470;2023-08-20T12:30:40;97429.42;;;42.25;18.39
47082;BME280;33066;49.296;14.470;2023-08-20T12:33:05;97422.10;;;42.27;17.95
47082;BME280;33066;49.296;14.470;2023-08-20T12:35:30;97420.53;;;42.40;17.45
47082;BME280;33066;49.296;14.470;2023-08-20T12:37:56;97418.28;;;42.61;17.28
47082;BME280;33066;49.296;14.470;2023-08-20T12:40:21;97415.60;;;42.64;17.13
47082;BME280;33066;49.296;14.470;2023-08-20T12:42:47;97412.22;;;42.73;16.94
47082;BME280;33066;49.296;14.470;2023-08-20T12:45:12;97404.82;;;42.69;17.16
47082;BME280;33066;49.296;14.470;2023-08-20T12:47:38;97404.05;;;42.96;17.47
47082;BME280;33066;49.296;14.470;2023-08-20T12:50:04;97399.95;;;43.31;17.11
47082;BME280;33066;49.296;14.470;2023-08-20T12:52:32;97400.20;;;43.57;16.66